Terminal Aerodrome Forecast
Issued by NWS

Home | Current Version | Previous Version | Text Only | Print | Product List | Glossary On
Versions: 1 2 3 4 5 6 7 8 9 10 11 12 13 14 15 16 17 18
000
FTUS45 KABQ 231700
TAFROW
TAF
KROW 231737Z 2318/2418 17005KT P6SM FEW060 BKN090
     FM232200 18010KT P6SM VCSH BKN050
     FM240200 19007KT P6SM OVC040
     FM240900 14004KT 4SM BR BKN025
     FM241500 VRB05KT P6SM BKN100=

USA.gov is the U.S. government's official web portal to all federal, state and local government web resources and services.